Time;durP1;ratioP1;P1;durP2;ratioP2;P2;SDS_P1;SDS_P2;PMS_P1;PMS_P2;Temp;Humidity;BMP_temperature;BMP_pressure;BME280_temperature;BME280_humidity;BME280_pressure;Samples;Min_cycle;Max_cycle;Signal;HPM_P1;HPM_P2
2022/04/16 00:00:27;;;;;;;33.30;20.45;;;;;;;10.12;100.00;100915.66;1762457;81;21071;-61
2022/04/16 00:02:54;;;;;;;31.55;20.23;;;;;;;10.17;100.00;100913.30;1786510;80;20985;-61
2022/04/16 00:05:23;;;;;;;35.55;21.35;;;;;;;10.14;100.00;100910.02;1759053;81;21076;-61
2022/04/16 00:08:07;;;;;;;30.97;19.98;;;;;;;10.09;100.00;100908.88;1767480;81;21040;-61
2022/04/16 00:10:37;;;;;;;31.80;20.52;;;;;;;9.94;100.00;100909.43;1767423;81;21595;-60
2022/04/16 00:13:07;;;;;;;34.48;20.23;;;;;;;9.85;100.00;100907.16;1758798;81;21072;-60
2022/04/16 00:15:36;;;;;;;36.08;21.57;;;;;;;9.86;100.00;100904.55;1759387;81;21020;-60
2022/04/16 00:18:05;;;;;;;34.55;20.77;;;;;;;9.72;100.00;100909.33;1759164;81;21049;-60
2022/04/16 00:20:35;;;;;;;33.92;20.97;;;;;;;9.93;100.00;100907.28;1759496;81;21064;-60
2022/04/16 00:23:02;;;;;;;36.83;20.37;;;;;;;9.85;100.00;100903.31;1759198;81;21025;-60
2022/04/16 00:25:32;;;;;;;31.82;19.57;;;;;;;9.95;100.00;100902.92;1759649;81;21529;-60
2022/04/16 00:27:59;;;;;;;34.63;18.80;;;;;;;9.84;100.00;100903.77;1778055;79;20992;-60
2022/04/16 00:30:28;;;;;;;33.18;19.20;;;;;;;9.88;100.00;100903.22;1796192;79;21023;-60
2022/04/16 00:32:57;;;;;;;30.48;19.48;;;;;;;9.65;100.00;100894.56;1796730;80;21034;-60
2022/04/16 00:35:26;;;;;;;33.65;19.17;;;;;;;9.90;100.00;100900.98;1796356;80;21063;-61
2022/04/16 00:37:54;;;;;;;34.40;19.73;;;;;;;9.74;100.00;100899.83;1796652;80;21058;-61
2022/04/16 00:40:22;;;;;;;34.58;21.37;;;;;;;9.69;100.00;100900.00;1796377;80;21066;-61
2022/04/16 00:42:50;;;;;;;37.05;20.90;;;;;;;9.81;100.00;100896.14;1796455;80;21512;-60
2022/04/16 00:45:18;;;;;;;35.85;21.95;;;;;;;9.65;100.00;100896.27;1796707;80;21030;-60
2022/04/16 00:47:47;;;;;;;33.58;19.75;;;;;;;9.67;100.00;100897.06;1796302;80;21069;-60
2022/04/16 00:50:15;;;;;;;32.85;20.35;;;;;;;9.68;100.00;100891.05;1796630;80;21076;-60
2022/04/16 00:52:44;;;;;;;33.78;19.00;;;;;;;9.73;100.00;100887.43;1796468;80;21086;-60
2022/04/16 00:55:13;;;;;;;32.33;19.10;;;;;;;9.66;100.00;100891.09;1796546;80;21031;-60
2022/04/16 00:57:42;;;;;;;32.63;19.23;;;;;;;9.67;100.00;100891.50;1796380;80;21039;-61
2022/04/16 01:00:13;;;;;;;34.00;19.95;;;;;;;9.68;100.00;100889.76;1796498;80;21070;-61
2022/04/16 01:02:42;;;;;;;32.33;19.30;;;;;;;9.69;100.00;100893.57;1796590;80;21558;-61
2022/04/16 01:05:12;;;;;;;33.28;18.73;;;;;;;9.72;100.00;100889.59;1796584;80;21547;-61
2022/04/16 01:07:53;;;;;;;30.15;18.57;;;;;;;9.69;100.00;100889.72;1796295;80;21019;-61
2022/04/16 01:10:25;;;;;;;29.02;17.95;;;;;;;9.65;100.00;100894.98;1796757;80;21046;-61
2022/04/16 01:12:51;;;;;;;31.70;18.52;;;;;;;9.65;100.00;100886.86;1797693;79;21034;-61
2022/04/16 01:15:20;;;;;;;28.60;18.35;;;;;;;9.54;100.00;100891.05;1806013;79;21032;-61
2022/04/16 01:17:49;;;;;;;30.65;18.65;;;;;;;9.51;100.00;100888.60;1806031;79;21046;-60
2022/04/16 01:20:18;;;;;;;30.85;18.52;;;;;;;9.64;100.00;100885.16;1806434;79;21440;-60
2022/04/16 01:22:50;;;;;;;34.98;18.05;;;;;;;9.65;100.00;100881.72;1778909;79;21711;-60
2022/04/16 01:25:19;;;;;;;28.73;17.15;;;;;;;9.60;100.00;100883.59;1806256;79;21030;-60
2022/04/16 01:27:46;;;;;;;27.62;17.00;;;;;;;9.62;100.00;100881.80;1805984;79;21041;-60
2022/04/16 01:30:19;;;;;;;28.12;17.87;;;;;;;9.61;100.00;100889.11;1806155;78;20983;-61
2022/04/16 01:32:48;;;;;;;28.30;17.25;;;;;;;9.56;100.00;100887.16;1774343;81;21054;-60
2022/04/16 01:35:17;;;;;;;26.75;16.77;;;;;;;9.51;100.00;100887.73;1774555;81;21553;-60
2022/04/16 01:37:44;;;;;;;28.38;17.67;;;;;;;9.48;100.00;100884.83;1774517;81;21027;-61
2022/04/16 01:40:15;;;;;;;27.07;16.65;;;;;;;9.34;100.00;100881.44;1774322;81;21086;-61
2022/04/16 01:42:45;;;;;;;27.00;16.75;;;;;;;9.39;100.00;100874.88;1774822;80;21495;-60
2022/04/16 01:45:18;;;;;;;28.02;16.55;;;;;;;9.36;100.00;100877.53;1774501;81;21487;-61
2022/04/16 01:47:45;;;;;;;25.05;16.00;;;;;;;9.29;100.00;100874.34;1774647;81;21014;-61
2022/04/16 01:50:13;;;;;;;26.10;16.17;;;;;;;9.27;100.00;100876.12;1774258;80;21058;-60
2022/04/16 01:52:43;;;;;;;25.27;16.25;;;;;;;9.23;100.00;100871.52;1774267;80;21026;-60
2022/04/16 01:55:12;;;;;;;24.65;16.05;;;;;;;9.16;100.00;100868.73;1774533;80;21557;-59
2022/04/16 01:57:40;;;;;;;26.82;16.37;;;;;;;9.15;100.00;100873.95;1774464;81;21018;-61
2022/04/16 02:00:13;;;;;;;24.80;15.58;;;;;;;9.10;100.00;100869.39;1774322;80;21113;-60
2022/04/16 02:02:42;;;;;;;23.38;15.65;;;;;;;9.12;100.00;100865.05;1774792;81;21066;-60
2022/04/16 02:05:11;;;;;;;24.25;15.38;;;;;;;9.04;100.00;100861.44;1774572;80;20983;-60
2022/04/16 02:07:39;;;;;;;26.52;15.05;;;;;;;9.02;100.00;100861.51;1774326;81;21069;-60
2022/04/16 02:10:08;;;;;;;27.52;14.98;;;;;;;8.89;100.00;100867.91;1774256;81;21506;-60
2022/04/16 02:12:37;;;;;;;28.02;15.35;;;;;;;8.87;100.00;100867.11;1774514;81;21002;-60
2022/04/16 02:15:07;;;;;;;25.97;14.60;;;;;;;8.92;100.00;100861.41;1774269;81;21086;-60
2022/04/16 02:17:37;;;;;;;23.85;15.30;;;;;;;8.93;100.00;100854.53;1774192;81;21093;-60
2022/04/16 02:20:08;;;;;;;24.90;15.00;;;;;;;8.84;100.00;100856.95;1774144;81;20987;-60
2022/04/16 02:22:47;;;;;;;26.02;15.60;;;;;;;8.84;100.00;100855.67;1774546;80;21526;-60
2022/04/16 02:25:18;;;;;;;24.32;14.93;;;;;;;8.69;100.00;100856.13;1774359;81;21074;-60
2022/04/16 02:27:46;;;;;;;26.73;15.43;;;;;;;8.76;100.00;100852.05;1774662;81;21038;-60
2022/04/16 02:30:16;;;;;;;25.50;15.20;;;;;;;8.73;100.00;100855.16;1774219;81;21026;-60
2022/04/16 02:32:47;;;;;;;24.60;15.55;;;;;;;8.82;100.00;100845.90;1774278;81;21031;-60
2022/04/16 02:35:17;;;;;;;25.95;15.45;;;;;;;8.98;100.00;100847.50;1774336;80;21062;-61
2022/04/16 02:37:46;;;;;;;24.55;15.25;;;;;;;8.97;100.00;100850.53;1774571;80;21309;-61
2022/04/16 02:40:15;;;;;;;25.32;15.43;;;;;;;8.86;100.00;100846.61;1774265;80;21034;-61
2022/04/16 02:42:45;;;;;;;23.12;15.18;;;;;;;8.82;100.00;100850.58;1774513;80;21487;-60
2022/04/16 02:48:02;;;;;;;26.55;16.57;;;;;;;8.76;100.00;100852.05;1774151;81;21082;-60
2022/04/16 02:50:29;;;;;;;26.95;15.58;;;;;;;8.87;100.00;100856.84;1774351;81;21054;-60
2022/04/16 02:52:58;;;;;;;29.52;16.80;;;;;;;8.79;100.00;100853.23;1774357;81;21069;-59
2022/04/16 02:55:27;;;;;;;27.32;15.88;;;;;;;8.75;100.00;100855.49;1774417;80;21018;-60
2022/04/16 02:57:54;;;;;;;26.57;15.03;;;;;;;8.83;100.00;100853.52;1774536;80;21010;-60
2022/04/16 03:00:22;;;;;;;26.25;15.68;;;;;;;8.81;100.00;100855.75;1774236;80;21066;-60
2022/04/16 03:02:53;;;;;;;26.07;15.30;;;;;;;8.78;100.00;100859.27;1774153;81;21011;-59
2022/04/16 03:05:21;;;;;;;25.30;15.48;;;;;;;8.75;100.00;100864.92;1774442;81;21002;-60
2022/04/16 03:07:51;;;;;;;28.05;15.70;;;;;;;8.96;100.00;100861.70;1774122;81;21034;-60
2022/04/16 03:10:19;;;;;;;25.08;16.42;;;;;;;8.89;100.00;100860.20;1774102;81;21018;-60
2022/04/16 03:12:52;;;;;;;27.52;15.65;;;;;;;8.93;100.00;100850.69;1774525;80;21010;-60
2022/04/16 03:18:11;;;;;;;28.73;15.85;;;;;;;8.82;100.00;100842.88;1770778;81;21018;-60
2022/04/16 03:20:42;;;;;;;26.00;15.85;;;;;;;8.98;100.00;100843.66;1770815;81;21011;-60
2022/04/16 03:23:10;;;;;;;27.32;15.35;;;;;;;9.00;100.00;100843.16;1771105;80;21053;-60
2022/04/16 03:25:40;;;;;;;23.07;15.15;;;;;;;9.09;100.00;100846.73;1770748;81;21038;-61
2022/04/16 03:28:08;;;;;;;27.62;16.35;;;;;;;9.17;100.00;100838.33;1741030;81;21019;-60
2022/04/16 03:30:36;;;;;;;28.83;16.48;;;;;;;9.23;100.00;100836.84;1770899;81;21082;-60
2022/04/16 03:33:04;;;;;;;24.65;14.93;;;;;;;9.27;100.00;100842.72;1771056;80;21019;-61
2022/04/16 03:35:34;;;;;;;25.52;16.20;;;;;;;9.28;100.00;100838.42;1770832;81;21074;-60
2022/04/16 03:38:02;;;;;;;32.42;17.50;;;;;;;9.33;100.00;100827.10;1796998;78;21060;-61
2022/04/16 03:40:29;;;;;;;27.73;16.62;;;;;;;9.42;100.00;100834.94;1797668;80;20981;-60
2022/04/16 03:43:00;;;;;;;26.80;16.27;;;;;;;9.38;100.00;100824.37;1797344;80;21556;-60
2022/04/16 03:45:34;;;;;;;29.85;17.10;;;;;;;9.51;100.00;100826.06;1797709;80;21062;-61
2022/04/16 03:48:05;;;;;;;26.50;16.57;;;;;;;9.77;100.00;100825.16;1797779;80;21029;-60
2022/04/16 03:50:34;;;;;;;29.20;17.65;;;;;;;9.86;100.00;100825.30;1797853;80;21021;-60
2022/04/16 03:53:04;;;;;;;28.73;17.62;;;;;;;9.87;100.00;100825.67;1797747;80;21036;-60
2022/04/16 04:01:06;;;;;;;31.40;17.92;;;;;;;10.20;100.00;100837.30;1797850;80;21024;-60
2022/04/16 04:03:36;;;;;;;31.12;18.15;;;;;;;10.40;100.00;100834.02;1797598;80;21080;-59
2022/04/16 04:06:04;;;;;;;30.60;18.85;;;;;;;10.28;100.00;100840.02;1797784;80;21025;-60
2022/04/16 04:08:33;;;;;;;32.73;19.15;;;;;;;10.48;100.00;100840.13;1797557;80;21068;-60
2022/04/16 04:11:02;;;;;;;29.77;17.95;;;;;;;10.55;100.00;100841.59;1797804;80;21489;-59
2022/04/16 04:13:31;;;;;;;34.43;20.62;;;;;;;10.74;100.00;100840.87;1797799;80;21033;-59
2022/04/16 04:15:58;;;;;;;32.03;19.42;;;;;;;10.83;100.00;100843.09;1797850;80;21505;-59
2022/04/16 04:18:28;;;;;;;31.27;18.52;;;;;;;10.97;100.00;100840.80;1797757;80;21580;-60
2022/04/16 04:20:56;;;;;;;30.43;18.92;;;;;;;11.14;100.00;100840.56;1797609;80;21009;-59
2022/04/16 04:23:25;;;;;;;32.13;18.52;;;;;;;11.12;100.00;100836.75;1797886;80;21041;-60
2022/04/16 04:25:53;;;;;;;31.45;19.73;;;;;;;11.32;100.00;100838.50;1797517;80;21554;-60
2022/04/16 04:28:20;;;;;;;31.30;18.37;;;;;;;11.40;100.00;100849.79;1797766;80;21016;-60
2022/04/16 04:30:48;;;;;;;31.68;19.40;;;;;;;11.33;100.00;100845.32;1798078;80;21091;-59
2022/04/16 04:33:16;;;;;;;29.72;18.02;;;;;;;11.34;100.00;100848.76;1797511;80;21071;-59
2022/04/16 04:35:44;;;;;;;30.20;18.50;;;;;;;11.51;100.00;100846.75;1797875;80;21025;-60
2022/04/16 04:38:11;;;;;;;35.23;19.65;;;;;;;11.48;100.00;100859.33;1797604;80;21040;-60
2022/04/16 04:40:39;;;;;;;34.23;19.60;;;;;;;11.67;100.00;100848.22;1797545;80;21029;-59
2022/04/16 04:43:06;;;;;;;34.53;19.32;;;;;;;11.91;100.00;100851.51;1797717;80;21028;-60
2022/04/16 04:45:34;;;;;;;32.08;19.00;;;;;;;11.79;100.00;100851.56;1797785;80;21040;-60
2022/04/16 04:48:01;;;;;;;32.90;19.85;;;;;;;11.90;100.00;100853.69;1797556;80;21036;-60
2022/04/16 04:50:30;;;;;;;34.65;20.50;;;;;;;11.65;100.00;100852.61;1797726;80;21037;-60
2022/04/16 04:52:57;;;;;;;36.40;21.68;;;;;;;11.70;100.00;100851.52;1797559;80;21072;-60
2022/04/16 04:55:24;;;;;;;36.58;21.52;;;;;;;11.73;100.00;100841.05;1797452;80;21084;-60
2022/04/16 04:57:54;;;;;;;34.33;20.97;;;;;;;11.78;100.00;100849.87;1797836;80;21068;-60
2022/04/16 05:00:21;;;;;;;36.65;21.75;;;;;;;11.96;100.00;100841.81;1797473;80;21600;-59
2022/04/16 05:02:48;;;;;;;37.83;22.00;;;;;;;12.03;100.00;100843.22;1797681;80;21032;-60
2022/04/16 05:05:18;;;;;;;35.15;22.77;;;;;;;11.86;100.00;100839.22;1797534;80;21068;-59
2022/04/16 05:07:47;;;;;;;36.50;23.02;;;;;;;11.92;100.00;100845.00;1797820;80;21024;-60
2022/04/16 05:10:14;;;;;;;37.58;23.90;;;;;;;11.77;100.00;100845.62;1797776;80;21041;-59
2022/04/16 05:12:41;;;;;;;37.78;24.23;;;;;;;11.73;100.00;100841.52;1797406;80;21032;-59
2022/04/16 05:15:09;;;;;;;37.93;23.57;;;;;;;11.89;100.00;100848.16;1788757;80;21096;-61
2022/04/16 05:17:37;;;;;;;32.75;22.05;;;;;;;11.96;100.00;100848.26;1783810;80;21080;-60
2022/04/16 05:20:09;;;;;;;33.95;21.90;;;;;;;12.05;100.00;100847.03;1734739;83;21039;-60
2022/04/16 05:22:37;;;;;;;33.63;21.07;;;;;;;12.20;100.00;100853.61;1783935;80;21053;-60
2022/04/16 05:25:08;;;;;;;33.80;21.45;;;;;;;12.34;100.00;100848.28;1734859;83;21015;-60
2022/04/16 05:27:35;;;;;;;31.45;20.00;;;;;;;12.48;100.00;100854.10;1783882;80;20985;-60
2022/04/16 05:30:11;;;;;;;32.58;19.77;;;;;;;12.55;100.00;100852.89;1783556;80;21126;-60
2022/04/16 05:32:40;;;;;;;28.45;18.55;;;;;;;12.61;100.00;100849.59;1734730;83;21122;-60
2022/04/16 05:35:10;;;;;;;26.10;17.27;;;;;;;12.53;100.00;100845.67;1785333;80;21061;-59
2022/04/16 05:37:37;;;;;;;25.43;16.10;;;;;;;12.52;100.00;100845.30;1783841;80;21013;-61
2022/04/16 05:40:07;;;;;;;21.97;14.68;;;;;;;12.66;100.00;100850.66;1783584;80;20994;-61
2022/04/16 05:42:43;;;;;;;19.80;14.20;;;;;;;12.61;100.00;100845.72;1783873;80;21057;-61
2022/04/16 05:45:14;;;;;;;20.80;13.35;;;;;;;12.66;100.00;100844.66;1783914;80;21033;-60
2022/04/16 05:47:43;;;;;;;23.30;13.90;;;;;;;12.65;100.00;100849.43;1783989;80;21068;-60
2022/04/16 05:50:11;;;;;;;19.27;13.78;;;;;;;12.62;100.00;100847.84;1783767;80;21009;-60
2022/04/16 05:52:40;;;;;;;22.93;13.43;;;;;;;12.59;100.00;100847.53;1783849;80;21069;-61
2022/04/16 05:55:09;;;;;;;18.82;13.65;;;;;;;12.78;100.00;100851.83;1783828;80;21572;-61
2022/04/16 05:57:37;;;;;;;20.45;13.53;;;;;;;12.75;100.00;100847.65;1784135;80;21089;-60
2022/04/16 06:00:07;;;;;;;19.90;13.00;;;;;;;12.32;100.00;100854.80;1783628;80;21581;-60
2022/04/16 06:02:37;;;;;;;17.23;11.78;;;;;;;12.53;100.00;100854.28;1783027;80;20997;-61
2022/04/16 06:05:07;;;;;;;17.90;12.68;;;;;;;12.49;100.00;100854.03;1783801;80;21038;-60
2022/04/16 06:07:34;;;;;;;17.82;12.88;;;;;;;12.39;100.00;100843.76;1784045;80;21005;-60
2022/04/16 06:10:02;;;;;;;16.85;12.03;;;;;;;12.47;100.00;100842.08;1783573;80;21076;-60
2022/04/16 06:12:31;;;;;;;16.97;12.55;;;;;;;12.63;100.00;100841.75;1734841;83;21130;-60
2022/04/16 06:15:00;;;;;;;22.55;13.22;;;;;;;12.79;100.00;100848.31;1792096;79;21016;-60
2022/04/16 06:17:28;;;;;;;17.20;12.03;;;;;;;13.07;100.00;100841.36;1796935;79;21008;-61
2022/04/16 06:19:56;;;;;;;19.62;12.45;;;;;;;13.18;100.00;100843.44;1792609;79;20990;-60
2022/04/16 06:22:24;;;;;;;17.60;12.90;;;;;;;13.02;100.00;100840.30;1785479;79;21003;-60
2022/04/16 06:24:53;;;;;;;17.42;11.97;;;;;;;13.00;100.00;100839.53;1793712;79;20982;-60
2022/04/16 06:27:20;;;;;;;17.85;12.00;;;;;;;12.75;100.00;100849.38;1801225;79;20952;-61
2022/04/16 06:29:49;;;;;;;18.35;12.60;;;;;;;12.61;100.00;100848.30;1793562;79;20989;-60
2022/04/16 06:32:17;;;;;;;16.90;12.20;;;;;;;12.39;100.00;100846.34;1794691;79;21523;-61
2022/04/16 06:34:48;;;;;;;17.35;11.88;;;;;;;12.33;100.00;100853.91;1795199;79;21028;-61
2022/04/16 06:37:16;;;;;;;16.52;11.75;;;;;;;12.49;100.00;100859.63;1763901;81;20948;-59
2022/04/16 06:39:44;;;;;;;16.73;11.73;;;;;;;12.69;100.00;100862.15;1794070;79;20992;-60
2022/04/16 06:42:11;;;;;;;14.85;11.00;;;;;;;12.83;100.00;100868.78;1794974;79;21010;-60
2022/04/16 06:44:39;;;;;;;15.80;11.22;;;;;;;12.50;100.00;100873.77;1783234;80;21054;-60
2022/04/16 06:47:07;;;;;;;15.90;11.40;;;;;;;12.57;100.00;100867.86;1799398;79;21001;-60
2022/04/16 06:49:34;;;;;;;16.70;11.08;;;;;;;12.75;100.00;100863.58;1796783;79;20966;-60
2022/04/16 06:52:01;;;;;;;15.85;11.03;;;;;;;13.03;100.00;100868.27;1790375;79;21000;-59
2022/04/16 06:54:29;;;;;;;16.42;10.93;;;;;;;12.74;100.00;100874.84;1798140;79;21038;-60
2022/04/16 06:56:56;;;;;;;14.30;10.38;;;;;;;12.68;100.00;100874.66;1796498;79;21001;-60
2022/04/16 06:59:24;;;;;;;13.93;10.75;;;;;;;12.74;100.00;100869.67;1793001;79;21586;-60
2022/04/16 07:01:52;;;;;;;14.50;10.68;;;;;;;12.82;100.00;100871.44;1797914;79;21031;-60
2022/04/16 07:04:20;;;;;;;13.35;10.40;;;;;;;12.70;100.00;100876.72;1805345;79;21019;-59
2022/04/16 07:06:48;;;;;;;17.25;11.20;;;;;;;12.74;100.00;100881.30;1762724;81;21047;-59
2022/04/16 07:09:15;;;;;;;14.15;10.80;;;;;;;12.69;100.00;100868.61;1762582;81;21082;-59
2022/04/16 07:11:43;;;;;;;15.93;11.70;;;;;;;12.86;100.00;100869.55;1792813;80;20995;-59
2022/04/16 07:14:10;;;;;;;16.93;11.80;;;;;;;12.96;100.00;100868.20;1761791;81;21106;-59
2022/04/16 07:16:38;;;;;;;16.05;11.63;;;;;;;13.13;100.00;100865.61;1811639;79;21063;-59
2022/04/16 07:19:07;;;;;;;18.95;12.47;;;;;;;13.37;100.00;100866.18;1797134;79;21070;-59
2022/04/16 07:21:35;;;;;;;17.95;12.23;;;;;;;13.65;100.00;100853.62;1829661;78;21066;-60
2022/04/16 07:24:06;;;;;;;17.45;12.73;;;;;;;13.90;100.00;100857.05;1796783;78;21554;-61
2022/04/16 07:26:35;;;;;;;16.45;11.90;;;;;;;14.01;100.00;100861.22;1803138;78;21538;-60
2022/04/16 07:29:02;;;;;;;16.42;11.88;;;;;;;14.18;100.00;100856.42;1797311;79;21515;-61
2022/04/16 07:31:29;;;;;;;16.10;11.85;;;;;;;14.37;100.00;100857.55;1830011;78;21050;-61
2022/04/16 07:33:57;;;;;;;16.67;11.48;;;;;;;14.42;100.00;100855.09;1797769;80;20968;-61
2022/04/16 07:36:24;;;;;;;16.85;11.68;;;;;;;14.33;100.00;100854.28;1829682;78;21097;-61
2022/04/16 07:38:51;;;;;;;16.02;10.90;;;;;;;14.21;100.00;100844.59;1797510;80;21122;-61
2022/04/16 07:41:19;;;;;;;17.42;11.85;;;;;;;14.05;100.00;100846.34;1829782;78;21086;-60
2022/04/16 07:43:47;;;;;;;19.85;12.33;;;;;;;14.06;100.00;100847.55;1797608;80;21020;-60
2022/04/16 07:46:18;;;;;;;18.35;11.80;;;;;;;14.45;100.00;100842.43;1829750;78;21055;-61
2022/04/16 07:48:44;;;;;;;18.42;12.25;;;;;;;14.85;100.00;100832.94;1783826;79;21029;-61
2022/04/16 07:51:11;;;;;;;18.02;12.00;;;;;;;15.13;100.00;100832.20;1804661;78;21025;-61
2022/04/16 07:53:38;;;;;;;16.25;11.60;;;;;;;15.34;100.00;100845.19;1797245;80;21617;-61
2022/04/16 07:56:06;;;;;;;17.80;12.10;;;;;;;15.43;100.00;100847.72;1797536;79;21006;-61
2022/04/16 07:58:33;;;;;;;17.70;11.80;;;;;;;15.64;100.00;100846.91;1797157;80;21008;-61
2022/04/16 08:01:01;;;;;;;18.60;11.83;;;;;;;15.67;100.00;100842.80;1806032;78;20975;-61
2022/04/16 08:03:28;;;;;;;17.25;11.75;;;;;;;15.86;100.00;100835.27;1808549;78;21010;-61
2022/04/16 08:05:58;;;;;;;19.92;12.45;;;;;;;16.04;100.00;100834.13;1812546;78;21023;-61
2022/04/16 08:08:25;;;;;;;19.42;12.33;;;;;;;16.02;100.00;100839.41;1780036;80;21206;-61
2022/04/16 08:10:54;;;;;;;16.60;11.48;;;;;;;16.32;100.00;100825.45;1794674;78;21105;-61
2022/04/16 08:13:21;;;;;;;17.32;11.57;;;;;;;16.45;100.00;100831.17;1784522;80;21514;-60
2022/04/16 08:15:51;;;;;;;14.95;11.05;;;;;;;16.34;100.00;100835.73;1791158;80;21071;-61
2022/04/16 08:18:19;;;;;;;15.95;11.28;;;;;;;16.51;100.00;100829.48;1802054;78;21082;-61
2022/04/16 08:20:47;;;;;;;17.42;11.43;;;;;;;16.65;100.00;100828.60;1792678;80;21022;-61
2022/04/16 08:23:15;;;;;;;17.87;11.80;;;;;;;16.48;100.00;100829.19;1792445;80;21036;-60
2022/04/16 08:28:09;;;;;;;18.62;11.73;;;;;;;16.15;100.00;100838.17;1806056;78;21003;-61
2022/04/16 08:30:37;;;;;;;18.35;11.68;;;;;;;16.25;100.00;100825.93;1806017;78;20992;-60
2022/04/16 08:33:07;;;;;;;17.55;11.88;;;;;;;16.54;100.00;100832.69;1811391;79;21040;-60
2022/04/16 08:35:34;;;;;;;16.40;11.43;;;;;;;16.88;100.00;100831.03;1792609;80;21067;-61
2022/04/16 08:38:03;;;;;;;18.05;10.82;;;;;;;17.15;100.00;100830.52;1792220;80;21095;-61
2022/04/16 08:40:30;;;;;;;15.08;10.85;;;;;;;17.25;100.00;100825.51;1823924;78;21081;-60
2022/04/16 08:42:58;;;;;;;17.65;10.88;;;;;;;17.07;100.00;100828.03;1793573;80;21027;-61
2022/04/16 08:45:26;;;;;;;14.80;10.63;;;;;;;17.03;100.00;100823.50;1792497;80;21493;-61
2022/04/16 08:47:54;;;;;;;18.10;11.33;;;;;;;17.16;100.00;100818.34;1814949;78;20972;-61
2022/04/16 08:50:24;;;;;;;16.65;11.00;;;;;;;17.08;100.00;100816.23;1792936;80;21016;-61
2022/04/16 08:52:51;;;;;;;18.25;11.25;;;;;;;17.16;100.00;100818.34;1792788;80;21043;-62
2022/04/16 08:55:19;;;;;;;16.25;11.38;;;;;;;17.07;100.00;100817.19;1792400;80;21466;-61
2022/04/16 08:57:47;;;;;;;19.67;11.65;;;;;;;17.13;100.00;100812.02;1811595;78;20991;-61
2022/04/16 09:00:16;;;;;;;19.92;11.95;;;;;;;17.10;100.00;100812.24;1801700;78;21567;-62
2022/04/16 09:02:57;;;;;;;16.95;11.12;;;;;;;17.38;100.00;100814.65;1814781;78;20991;-61
2022/04/16 09:05:29;;;;;;;14.83;11.45;;;;;;;17.28;100.00;100808.88;1807405;78;21546;-60
2022/04/16 09:08:02;;;;;;;18.10;11.38;;;;;;;17.29;100.00;100809.23;1792200;79;21484;-60
2022/04/16 09:10:36;;;;;;;17.37;11.10;;;;;;;17.61;100.00;100802.66;1792214;80;20970;-61
2022/04/16 09:13:05;;;;;;;23.32;11.38;;;;;;;17.91;98.83;100803.28;1811629;78;21070;-61
2022/04/16 09:15:34;;;;;;;18.45;11.93;;;;;;;18.12;100.00;100805.66;1807627;78;21079;-61
2022/04/16 09:18:08;;;;;;;16.90;10.72;;;;;;;18.41;95.79;100806.67;1814277;78;21059;-61
2022/04/16 09:20:37;;;;;;;17.07;11.63;;;;;;;18.40;95.66;100811.03;1789105;80;21440;-61
2022/04/16 09:23:22;;;;;;;16.77;11.40;;;;;;;17.92;95.06;100804.93;1792384;80;21028;-60
2022/04/16 09:25:50;;;;;;;16.95;11.60;;;;;;;17.74;99.64;100810.47;1792791;80;21476;-60
2022/04/16 09:28:21;;;;;;;18.50;11.97;;;;;;;17.89;99.72;100805.16;1793678;80;21000;-61
2022/04/16 09:31:08;;;;;;;16.20;10.88;;;;;;;18.28;95.29;100798.88;1827350;78;21018;-61
2022/04/16 09:33:41;;;;;;;16.40;11.55;;;;;;;18.12;94.97;100800.44;1675155;85;21031;-61
2022/04/16 09:36:08;;;;;;;17.67;11.68;;;;;;;18.07;99.02;100794.75;1703512;84;21036;-60
2022/04/16 09:38:37;;;;;;;21.62;11.48;;;;;;;18.35;96.53;100796.20;1703539;84;20992;-61
2022/04/16 09:41:08;;;;;;;21.23;11.15;;;;;;;18.57;93.90;100786.36;1703827;84;20961;-60
2022/04/16 09:43:37;;;;;;;21.10;11.45;;;;;;;18.95;97.06;100787.91;1703718;84;20988;-60
2022/04/16 09:46:12;;;;;;;18.57;12.35;;;;;;;18.92;95.66;100790.77;1703821;84;20992;-59
2022/04/16 09:48:40;;;;;;;16.15;11.53;;;;;;;18.77;96.16;100786.64;1703270;84;21042;-60
2022/04/16 09:51:07;;;;;;;15.40;11.08;;;;;;;18.47;95.54;100790.59;1702893;84;21469;-60
2022/04/16 09:53:38;;;;;;;17.00;10.82;;;;;;;18.53;97.47;100786.22;1703597;84;21014;-60
2022/04/16 09:56:10;;;;;;;18.98;11.63;;;;;;;18.74;95.38;100788.20;1703729;84;21016;-60
2022/04/16 09:58:41;;;;;;;16.65;11.10;;;;;;;18.77;95.30;100784.03;1701880;84;21003;-59
2022/04/16 10:01:10;;;;;;;13.98;10.72;;;;;;;18.96;96.20;100786.16;1675197;85;21090;-60
2022/04/16 10:03:40;;;;;;;16.97;10.72;;;;;;;18.91;92.76;100781.27;1675542;85;21003;-61
2022/04/16 10:06:08;;;;;;;15.70;11.38;;;;;;;18.67;93.69;100777.36;1675314;86;21024;-61
2022/04/16 10:08:35;;;;;;;20.85;12.03;;;;;;;18.62;94.77;100779.02;1675287;86;21094;-60
2022/04/16 10:11:04;;;;;;;17.98;10.75;;;;;;;18.59;96.04;100781.86;1676121;86;21010;-61
2022/04/16 10:13:37;;;;;;;16.62;10.70;;;;;;;18.44;94.19;100777.76;1675369;85;21035;-60
2022/04/16 10:16:16;;;;;;;17.52;11.88;;;;;;;18.40;98.77;100772.41;1674930;86;21031;-61
2022/04/16 10:18:45;;;;;;;15.88;11.03;;;;;;;18.63;98.55;100766.80;1675339;85;21095;-61
2022/04/16 10:21:17;;;;;;;17.23;11.15;;;;;;;18.90;96.63;100761.36;1675469;86;20996;-60
2022/04/16 10:23:46;;;;;;;15.55;11.28;;;;;;;18.93;93.61;100767.62;1675552;85;21489;-60
2022/04/16 10:26:17;;;;;;;14.50;10.95;;;;;;;19.01;93.07;100769.19;1675458;85;21098;-60
2022/04/16 10:28:54;;;;;;;17.40;10.53;;;;;;;18.62;95.82;100761.24;1675495;85;21095;-61
2022/04/16 10:31:28;;;;;;;17.07;10.45;;;;;;;19.08;96.85;100766.97;1675084;86;21586;-59
2022/04/16 10:34:08;;;;;;;18.95;10.50;;;;;;;19.30;95.88;100768.78;1665653;86;21073;-59
2022/04/16 10:36:41;;;;;;;16.85;10.35;;;;;;;19.29;92.71;100772.80;1701707;84;21050;-59
2022/04/16 10:39:18;;;;;;;15.00;10.03;;;;;;;19.33;91.11;100776.84;1694147;84;21547;-60
2022/04/16 10:42:02;;;;;;;16.60;10.75;;;;;;;19.44;89.21;100774.70;1701724;84;21145;-60
2022/04/16 10:44:43;;;;;;;14.93;10.03;;;;;;;19.24;89.81;100765.30;1701316;84;21577;-61
2022/04/16 10:47:14;;;;;;;13.50;9.33;;;;;;;19.48;92.12;100763.89;1700893;83;21551;-61
2022/04/16 10:49:44;;;;;;;13.58;9.63;;;;;;;20.15;89.32;100757.78;1701547;84;21570;-60
2022/04/16 10:52:23;;;;;;;16.15;9.70;;;;;;;19.81;86.91;100765.69;1701700;84;21061;-60
2022/04/16 10:55:02;;;;;;;14.80;9.40;;;;;;;19.46;90.48;100776.23;1701652;84;21515;-61
2022/04/16 10:57:29;;;;;;;14.78;10.00;;;;;;;19.79;89.19;100775.43;1647052;84;21022;-61
2022/04/16 10:59:57;;;;;;;15.48;9.98;;;;;;;19.55;90.51;100766.39;1701456;83;21113;-60
2022/04/16 11:02:27;;;;;;;17.62;10.48;;;;;;;19.51;90.77;100768.06;1701834;84;21476;-61
2022/04/16 11:05:00;;;;;;;18.87;10.75;;;;;;;19.59;91.23;100773.52;1701735;84;21042;-61
2022/04/16 11:07:31;;;;;;;16.05;9.75;;;;;;;19.64;91.13;100770.55;1701632;84;21070;-61
2022/04/16 11:09:58;;;;;;;17.12;11.57;;;;;;;19.72;91.82;100767.70;1701261;84;21074;-61
2022/04/16 11:12:29;;;;;;;18.05;10.88;;;;;;;19.70;91.30;100772.19;1701449;84;21790;-61
2022/04/16 11:14:58;;;;;;;16.50;10.10;;;;;;;19.58;90.75;100777.06;1701518;84;21109;-61
2022/04/16 11:17:27;;;;;;;14.60;10.35;;;;;;;19.56;93.95;100772.44;1701523;84;21101;-60
2022/04/16 11:20:01;;;;;;;15.40;10.82;;;;;;;19.84;92.37;100774.23;1701527;84;21094;-61
2022/04/16 11:22:29;;;;;;;;;;;;;;;19.68;92.64;100770.66;1704294;84;21511;-60
2022/04/16 11:24:59;;;;;;;15.58;9.55;;;;;;;19.58;92.38;100768.75;1665437;86;20095;-59
2022/04/16 11:36:00;;;;;;;16.05;11.28;;;;;;;19.05;93.58;100763.75;1685597;85;21035;-60
2022/04/16 11:38:33;;;;;;;15.08;10.70;;;;;;;19.22;94.41;100761.98;1685723;85;21499;-60